createdAt,value
2023-02-06T00:00:52.020Z,77.89
2023-02-06T00:03:20.181Z,78.16
2023-02-06T00:05:55.520Z,78.48
2023-02-06T00:08:23.279Z,77.70
2023-02-06T00:10:52.400Z,78.33
2023-02-06T00:13:20.191Z,77.86
2023-02-06T00:15:47.837Z,78.16
2023-02-06T00:18:15.420Z,77.99
2023-02-06T00:20:43.007Z,77.36
2023-02-06T00:23:10.650Z,77.59
2023-02-06T00:25:38.377Z,77.04
2023-02-06T00:28:07.473Z,76.88
2023-02-06T00:30:35.051Z,77.30
2023-02-06T00:33:02.642Z,77.11
2023-02-06T00:35:30.562Z,76.75
2023-02-06T00:37:59.736Z,77.28
2023-02-06T00:40:27.270Z,77.80
2023-02-06T00:42:54.849Z,78.94
2023-02-06T00:45:23.693Z,78.74
2023-02-06T00:47:51.253Z,78.31
2023-02-06T00:50:19.156Z,78.38
2023-02-06T00:52:46.834Z,79.37
2023-02-06T00:55:14.416Z,79.41
2023-02-06T00:57:41.912Z,78.86
2023-02-06T01:00:10.864Z,79.25
2023-02-06T01:02:39.864Z,79.00
2023-02-06T01:05:08.051Z,79.16
2023-02-06T01:07:38.223Z,77.97
2023-02-06T01:10:06.716Z,76.59
2023-02-06T01:12:35.014Z,75.10
2023-02-06T01:15:02.674Z,74.90
2023-02-06T01:17:31.757Z,74.94
2023-02-06T01:20:01.267Z,74.44
2023-02-06T01:22:28.941Z,74.36
2023-02-06T01:24:56.484Z,74.35
2023-02-06T01:27:24.025Z,74.50
2023-02-06T01:29:51.719Z,74.49
2023-02-06T01:32:19.264Z,74.63
2023-02-06T01:34:47.574Z,74.71
2023-02-06T01:37:16.486Z,75.49
2023-02-06T01:39:44.187Z,75.08
2023-02-06T01:42:13.402Z,76.14
2023-02-06T01:44:41.054Z,76.66
2023-02-06T01:47:11.516Z,77.44
2023-02-06T01:49:42.452Z,76.81
2023-02-06T01:52:16.569Z,76.35
2023-02-06T01:54:50.184Z,77.89
2023-02-06T01:57:19.721Z,77.99
2023-02-06T01:59:52.770Z,77.83
2023-02-06T02:02:20.915Z,77.18
2023-02-06T02:04:49.363Z,77.56
2023-02-06T02:07:20.926Z,77.17
2023-02-06T02:09:49.940Z,76.75
2023-02-06T02:12:17.784Z,77.33
2023-02-06T02:14:47.216Z,77.32
2023-02-06T02:17:30.395Z,79.02
2023-02-06T02:20:33.813Z,79.63
2023-02-06T02:23:09.063Z,78.10
2023-02-06T02:26:34.043Z,80.28
2023-02-06T02:29:33.073Z,79.70
2023-02-06T02:32:31.073Z,77.55
2023-02-06T02:35:24.845Z,76.90
2023-02-06T02:38:02.837Z,76.76
2023-02-06T02:40:39.601Z,76.29
2023-02-06T02:43:15.104Z,77.09
2023-02-06T02:45:48.171Z,77.10
2023-02-06T02:48:19.752Z,77.14
2023-02-06T02:50:48.891Z,77.01
2023-02-06T02:53:16.672Z,76.84
2023-02-06T02:55:44.231Z,76.27
2023-02-06T02:58:14.780Z,77.62
2023-02-06T03:00:45.928Z,78.03
2023-02-06T03:03:16.281Z,79.08
2023-02-06T03:05:54.151Z,78.49
2023-02-06T03:08:29.990Z,79.92
2023-02-06T03:11:07.586Z,77.70
2023-02-06T03:13:40.068Z,76.41
2023-02-06T03:16:13.816Z,76.40
2023-02-06T03:18:44.698Z,76.99
2023-02-06T03:21:17.564Z,78.77
2023-02-06T03:23:46.324Z,78.07
2023-02-06T03:26:16.962Z,76.89
2023-02-06T03:28:48.652Z,75.96
2023-02-06T03:31:20.176Z,75.68
2023-02-06T03:33:51.762Z,75.61
2023-02-06T03:36:20.878Z,75.41
2023-02-06T03:38:52.145Z,74.51
2023-02-06T03:41:24.054Z,74.66
2023-02-06T03:43:53.722Z,74.48
2023-02-06T03:46:22.679Z,75.19
2023-02-06T03:48:55.124Z,74.65
2023-02-06T03:51:30.937Z,73.73
2023-02-06T03:54:03.468Z,73.61
2023-02-06T03:56:36.185Z,73.55
2023-02-06T03:59:03.881Z,73.46
2023-02-06T04:01:31.529Z,73.72
2023-02-06T04:03:59.898Z,73.22
2023-02-06T04:06:28.802Z,73.52
2023-02-06T04:08:56.293Z,73.85
2023-02-06T04:11:23.789Z,74.56
2023-02-06T04:13:51.306Z,75.16
2023-02-06T04:16:18.831Z,75.08
2023-02-06T04:18:46.352Z,75.68
2023-02-06T04:21:13.852Z,75.20
2023-02-06T04:23:42.687Z,75.53
2023-02-06T04:26:10.301Z,75.35
2023-02-06T04:28:37.849Z,75.14
2023-02-06T04:31:05.768Z,76.17
2023-02-06T04:33:33.340Z,76.79
2023-02-06T04:36:00.864Z,77.27
2023-02-06T04:38:28.583Z,77.44
2023-02-06T04:41:03.232Z,76.83
2023-02-06T04:43:30.768Z,77.11
2023-02-06T04:45:58.576Z,75.85
2023-02-06T04:48:26.416Z,75.53
2023-02-06T04:50:54.026Z,75.88
2023-02-06T04:53:21.597Z,76.05
2023-02-06T04:55:49.146Z,75.92
2023-02-06T04:58:18.063Z,75.59
2023-02-06T05:00:45.633Z,75.43
2023-02-06T05:03:13.215Z,75.60
2023-02-06T05:05:40.692Z,75.90
2023-02-06T05:08:08.206Z,77.23
2023-02-06T05:10:35.703Z,76.78
2023-02-06T05:13:03.272Z,75.99
2023-02-06T05:15:32.152Z,75.88
2023-02-06T05:17:59.705Z,75.43
2023-02-06T05:20:27.253Z,76.75
2023-02-06T05:22:55.040Z,76.46
2023-02-06T05:25:22.656Z,77.35
2023-02-06T05:27:51.378Z,77.82
2023-02-06T05:30:19.229Z,77.03
2023-02-06T05:32:48.150Z,76.72
2023-02-06T05:35:15.844Z,76.44
2023-02-06T05:37:43.503Z,77.64
2023-02-06T05:40:12.329Z,77.82
2023-02-06T05:42:39.838Z,77.55
2023-02-06T05:45:08.448Z,77.07
2023-02-06T05:47:36.014Z,77.04
2023-02-06T05:50:05.396Z,77.38
2023-02-06T05:52:32.945Z,77.37
2023-02-06T05:55:00.431Z,76.88
2023-02-06T05:57:27.974Z,78.83
2023-02-06T05:59:55.535Z,78.85
2023-02-06T06:02:23.173Z,78.72
2023-02-06T06:04:51.363Z,78.00
2023-02-06T06:07:29.033Z,79.82
2023-02-06T06:09:56.669Z,79.20
2023-02-06T06:12:24.300Z,78.89
2023-02-06T06:14:51.800Z,78.56
2023-02-06T06:17:19.304Z,77.61
2023-02-06T06:19:46.865Z,77.99
2023-02-06T06:22:14.354Z,78.94
2023-02-06T06:24:43.184Z,77.95
2023-02-06T06:27:11.784Z,78.56
2023-02-06T06:29:39.373Z,79.72
2023-02-06T06:32:07.287Z,79.96
2023-02-06T06:34:34.862Z,80.19
2023-02-06T06:37:02.390Z,80.84
2023-02-06T06:39:30.247Z,79.24
2023-02-06T06:41:59.411Z,77.58
2023-02-06T06:44:27.171Z,78.46
2023-02-06T06:46:54.943Z,78.45
2023-02-06T06:49:22.760Z,79.64
2023-02-06T06:51:50.574Z,80.33
2023-02-06T06:54:19.631Z,80.57
2023-02-06T06:56:47.530Z,81.15
2023-02-06T06:59:16.766Z,81.71
2023-02-06T07:01:44.752Z,82.14
2023-02-06T07:04:12.584Z,81.43
2023-02-06T07:06:40.441Z,81.28
2023-02-06T07:09:08.218Z,80.92
2023-02-06T07:11:35.969Z,81.40
2023-02-06T07:14:03.951Z,81.70
2023-02-06T07:16:33.569Z,80.08
2023-02-06T07:19:01.503Z,79.99
2023-02-06T07:21:29.457Z,80.34
2023-02-06T07:23:57.320Z,80.34
2023-02-06T07:26:25.154Z,80.50
2023-02-06T07:28:53.081Z,78.64
2023-02-06T07:31:21.022Z,78.77
2023-02-06T07:33:50.376Z,78.30
2023-02-06T07:36:18.846Z,77.73
2023-02-06T07:38:46.605Z,78.24
2023-02-06T07:41:14.562Z,79.91
2023-02-06T07:43:42.305Z,79.06
2023-02-06T07:46:10.168Z,79.49
2023-02-06T07:48:37.979Z,80.00
2023-02-06T07:51:08.799Z,79.14
2023-02-06T07:53:37.864Z,78.76
2023-02-06T07:56:11.875Z,77.71
2023-02-06T07:58:39.809Z,77.29
2023-02-06T08:01:08.279Z,77.81
2023-02-06T08:03:36.571Z,77.51
2023-02-06T08:06:10.735Z,77.50
2023-02-06T08:08:38.936Z,78.59
2023-02-06T08:11:07.932Z,79.05
2023-02-06T08:13:36.232Z,78.96
2023-02-06T08:16:08.541Z,80.20
2023-02-06T08:18:36.426Z,79.64
2023-02-06T08:21:07.535Z,79.13
2023-02-06T08:23:36.830Z,78.59
2023-02-06T08:26:05.974Z,78.45
2023-02-06T08:28:35.190Z,77.36
2023-02-06T08:31:09.618Z,77.80
2023-02-06T08:33:37.723Z,78.03
2023-02-06T08:36:06.582Z,77.51
2023-02-06T08:38:34.569Z,77.04
2023-02-06T08:41:04.011Z,75.57
2023-02-06T08:43:33.160Z,75.98
2023-02-06T08:46:01.182Z,75.19
2023-02-06T08:48:29.138Z,74.60
2023-02-06T08:51:04.387Z,73.02
2023-02-06T08:53:32.747Z,73.96
2023-02-06T08:56:04.052Z,73.89
2023-02-06T08:58:32.325Z,73.39
2023-02-06T09:01:00.718Z,73.18
2023-02-06T09:03:28.569Z,72.58
2023-02-06T09:06:09.397Z,72.58
2023-02-06T09:08:38.213Z,72.74
2023-02-06T09:11:08.428Z,72.92
2023-02-06T09:13:36.446Z,72.58
2023-02-06T09:16:05.439Z,72.45
2023-02-06T09:18:33.394Z,72.09
2023-02-06T09:21:06.314Z,71.38
2023-02-06T09:23:34.137Z,71.42
2023-02-06T09:26:02.020Z,72.22
2023-02-06T09:28:31.408Z,71.18
2023-02-06T09:30:59.411Z,71.57
2023-02-06T09:33:27.447Z,72.14
2023-02-06T09:36:06.263Z,75.67
2023-02-06T09:38:34.246Z,73.48
2023-02-06T09:41:05.051Z,72.26
2023-02-06T09:43:35.444Z,71.08
2023-02-06T09:46:06.094Z,70.73
2023-02-06T09:48:35.981Z,70.22
2023-02-06T09:51:14.050Z,69.65
2023-02-06T09:53:48.873Z,70.53
2023-02-06T09:56:26.461Z,73.01
2023-02-06T09:59:04.559Z,70.28
2023-02-06T10:01:39.631Z,73.28
2023-02-06T10:04:28.831Z,73.72
2023-02-06T10:07:07.806Z,73.44
2023-02-06T10:09:41.674Z,71.56
2023-02-06T10:12:15.646Z,70.78
2023-02-06T10:14:49.394Z,71.66
2023-02-06T10:17:23.037Z,70.16
2023-02-06T10:19:58.130Z,69.82
2023-02-06T10:22:32.625Z,68.96
2023-02-06T10:25:22.349Z,68.92
2023-02-06T10:27:56.248Z,69.81
2023-02-06T10:30:37.026Z,69.62
2023-02-06T10:33:23.957Z,70.25
2023-02-06T10:36:01.194Z,69.65
2023-02-06T10:38:42.396Z,69.62
2023-02-06T10:41:15.779Z,69.66
2023-02-06T10:43:49.105Z,70.07
2023-02-06T10:46:38.000Z,69.54
2023-02-06T10:49:14.101Z,69.17
2023-02-06T10:51:45.425Z,68.91
2023-02-06T10:54:19.600Z,68.58
2023-02-06T10:56:48.848Z,69.97
2023-02-06T10:59:24.833Z,68.87
2023-02-06T11:02:03.456Z,68.91
2023-02-06T11:04:36.929Z,68.13
2023-02-06T11:07:09.700Z,68.38
2023-02-06T11:09:37.511Z,68.88
2023-02-06T11:12:06.558Z,68.97
2023-02-06T11:14:37.729Z,68.06
2023-02-06T11:17:06.976Z,67.88
2023-02-06T11:19:39.149Z,68.13
2023-02-06T11:22:12.829Z,67.89
2023-02-06T11:25:00.161Z,67.52
2023-02-06T11:27:29.413Z,67.96
2023-02-06T11:29:57.588Z,67.96
2023-02-06T11:32:36.094Z,67.64
2023-02-06T11:35:07.586Z,67.86
2023-02-06T11:37:37.561Z,68.47
2023-02-06T11:40:26.827Z,67.45
2023-02-06T11:43:18.272Z,67.18
2023-02-06T11:45:47.373Z,67.98
2023-02-06T11:48:40.236Z,68.10
2023-02-06T11:51:09.682Z,67.89
2023-02-06T11:53:38.906Z,68.06
2023-02-06T11:56:16.585Z,67.38
2023-02-06T11:58:45.474Z,67.31
2023-02-06T12:01:21.030Z,67.53
2023-02-06T12:03:58.771Z,67.56
2023-02-06T12:06:31.755Z,67.47
2023-02-06T12:09:01.320Z,67.74
2023-02-06T12:11:34.416Z,65.78
2023-02-06T12:14:06.210Z,66.17
2023-02-06T12:16:35.680Z,66.10
2023-02-06T12:19:11.613Z,65.11
2023-02-06T12:21:43.563Z,65.15
2023-02-06T12:24:28.219Z,65.06
2023-02-06T12:26:57.157Z,65.67
2023-02-06T12:29:28.942Z,65.11
2023-02-06T12:32:05.139Z,64.87
2023-02-06T12:34:46.420Z,65.17
2023-02-06T12:37:31.532Z,65.32
2023-02-06T12:39:59.904Z,65.61
2023-02-06T12:42:38.983Z,65.54
2023-02-06T12:45:17.760Z,65.64
2023-02-06T12:47:50.882Z,66.71
2023-02-06T12:50:24.359Z,66.11
2023-02-06T12:52:57.546Z,65.93
2023-02-06T12:55:29.633Z,65.45
2023-02-06T12:57:57.914Z,65.46
2023-02-06T13:00:44.889Z,64.92
2023-02-06T13:03:32.321Z,64.00
2023-02-06T13:06:13.283Z,68.22
2023-02-06T13:08:45.002Z,67.33
2023-02-06T13:11:25.257Z,65.16
2023-02-06T13:14:01.432Z,66.39
2023-02-06T13:16:44.537Z,65.15
2023-02-06T13:19:26.556Z,64.80
2023-02-06T13:22:22.967Z,69.05
2023-02-06T13:24:52.393Z,68.79
2023-02-06T13:27:25.001Z,66.78
2023-02-06T13:29:53.920Z,67.16
2023-02-06T13:32:46.048Z,70.40
2023-02-06T13:35:26.852Z,67.79
2023-02-06T13:38:29.453Z,65.76
2023-02-06T13:41:27.764Z,66.29
2023-02-06T13:43:58.235Z,66.35
2023-02-06T13:46:58.745Z,65.75
2023-02-06T13:49:55.094Z,65.54
2023-02-06T13:52:35.416Z,67.27
2023-02-06T13:55:22.387Z,65.62
2023-02-06T13:58:17.523Z,65.39
2023-02-06T14:00:48.801Z,67.15
2023-02-06T14:03:23.705Z,67.86
2023-02-06T14:06:00.748Z,66.34
2023-02-06T14:08:38.723Z,69.47
2023-02-06T14:11:38.538Z,67.66
2023-02-06T14:14:24.770Z,69.98
2023-02-06T14:17:03.178Z,71.54
2023-02-06T14:19:39.708Z,69.50
2023-02-06T14:22:20.359Z,70.88
2023-02-06T14:25:06.563Z,66.96
2023-02-06T14:27:51.671Z,71.88
2023-02-06T14:30:32.243Z,68.94
2023-02-06T14:33:11.920Z,72.28
2023-02-06T14:35:58.400Z,67.71
2023-02-06T14:38:48.121Z,65.99
2023-02-06T14:41:16.823Z,66.72
2023-02-06T14:43:46.741Z,68.41
2023-02-06T14:46:18.350Z,68.32
2023-02-06T14:48:49.284Z,67.46
2023-02-06T14:51:24.706Z,70.23
2023-02-06T14:53:55.727Z,71.05
2023-02-06T14:56:29.061Z,68.24
2023-02-06T14:58:56.818Z,68.58
2023-02-06T15:01:28.724Z,69.98
2023-02-06T15:04:11.524Z,67.33
2023-02-06T15:06:40.796Z,70.41
2023-02-06T15:09:09.448Z,71.41
2023-02-06T15:11:36.976Z,70.00
2023-02-06T15:14:19.952Z,70.07
2023-02-06T15:16:50.068Z,69.54
2023-02-06T15:19:20.753Z,68.88
2023-02-06T15:21:48.817Z,70.23
2023-02-06T15:24:36.911Z,73.11
2023-02-06T15:27:14.580Z,72.85
2023-02-06T15:29:48.875Z,71.27
2023-02-06T15:32:26.059Z,72.30
2023-02-06T15:34:53.617Z,71.27
2023-02-06T15:37:23.198Z,72.73
2023-02-06T15:39:51.600Z,71.29
2023-02-06T15:42:20.980Z,71.76
2023-02-06T15:44:50.338Z,72.13
2023-02-06T15:47:21.217Z,73.01
2023-02-06T15:49:50.714Z,73.88
2023-02-06T15:52:34.493Z,74.05
2023-02-06T15:55:02.249Z,72.02
2023-02-06T15:57:32.463Z,71.84
2023-02-06T16:00:00.466Z,72.30
2023-02-06T16:02:33.790Z,70.34
2023-02-06T16:05:02.852Z,72.98
2023-02-06T16:07:33.129Z,71.65
2023-02-06T16:10:05.982Z,70.99
2023-02-06T16:12:34.021Z,72.66
2023-02-06T16:15:03.474Z,72.48
2023-02-06T16:17:35.286Z,71.20
2023-02-06T16:20:05.004Z,72.25
2023-02-06T16:22:34.589Z,72.65
2023-02-06T16:25:22.334Z,71.22
2023-02-06T16:27:51.148Z,72.40
2023-02-06T16:30:28.186Z,74.17
2023-02-06T16:32:59.088Z,71.95
2023-02-06T16:35:27.327Z,72.10
2023-02-06T16:37:55.443Z,73.27
2023-02-06T16:40:26.063Z,74.19
2023-02-06T16:42:53.846Z,73.32
2023-02-06T16:45:23.514Z,72.93
2023-02-06T16:47:51.630Z,72.94
2023-02-06T16:50:22.259Z,73.77
2023-02-06T16:52:51.940Z,73.06
2023-02-06T16:55:23.132Z,72.79
2023-02-06T16:57:54.149Z,73.08
2023-02-06T17:00:24.037Z,73.83
2023-02-06T17:02:52.902Z,74.25
2023-02-06T17:05:24.917Z,73.68
2023-02-06T17:07:53.462Z,73.79
2023-02-06T17:10:23.245Z,72.24
2023-02-06T17:12:51.157Z,71.63
2023-02-06T17:15:20.162Z,72.46
2023-02-06T17:17:48.029Z,72.35
2023-02-06T17:20:25.248Z,74.25
2023-02-06T17:22:52.974Z,73.21
2023-02-06T17:25:20.482Z,72.37
2023-02-06T17:27:48.272Z,72.27
2023-02-06T17:30:18.571Z,71.77
2023-02-06T17:32:46.110Z,73.16
2023-02-06T17:35:13.955Z,73.27
2023-02-06T17:37:42.877Z,72.59
2023-02-06T17:40:17.392Z,73.14
2023-02-06T17:42:44.976Z,72.42
2023-02-06T17:45:12.653Z,72.52
2023-02-06T17:47:40.186Z,73.02
2023-02-06T17:50:08.844Z,73.66
2023-02-06T17:52:36.425Z,72.92
2023-02-06T17:55:05.550Z,72.25
2023-02-06T17:57:34.876Z,71.92
2023-02-06T18:00:02.633Z,71.61
2023-02-06T18:02:30.216Z,72.47
2023-02-06T18:04:59.859Z,72.93
2023-02-06T18:07:27.859Z,72.58
2023-02-06T18:09:55.375Z,72.09
2023-02-06T18:12:24.208Z,73.29
2023-02-06T18:14:51.754Z,73.37
2023-02-06T18:17:19.826Z,72.68
2023-02-06T18:19:49.691Z,72.33
2023-02-06T18:22:19.751Z,72.30
2023-02-06T18:24:48.292Z,72.96
2023-02-06T18:27:16.096Z,72.33
2023-02-06T18:29:50.664Z,72.45
2023-02-06T18:32:19.381Z,72.28
2023-02-06T18:34:47.370Z,72.52
2023-02-06T18:37:15.235Z,72.74
2023-02-06T18:39:42.921Z,73.20
2023-02-06T18:42:28.578Z,73.33
2023-02-06T18:44:57.434Z,73.06
2023-02-06T18:47:25.052Z,73.35
2023-02-06T18:49:52.620Z,72.81
2023-02-06T18:52:20.141Z,73.22
2023-02-06T18:54:48.754Z,72.95
2023-02-06T18:57:16.313Z,73.08
2023-02-06T18:59:43.816Z,73.22
2023-02-06T19:02:13.169Z,72.97
2023-02-06T19:04:41.202Z,73.10
2023-02-06T19:07:11.099Z,72.95
2023-02-06T19:09:38.952Z,72.74
2023-02-06T19:12:07.040Z,72.84
2023-02-06T19:14:34.611Z,72.61
2023-02-06T19:17:02.214Z,72.83
2023-02-06T19:19:31.076Z,72.42
2023-02-06T19:21:58.581Z,72.71
2023-02-06T19:24:28.200Z,73.15
2023-02-06T19:26:56.446Z,73.14
2023-02-06T19:29:34.868Z,73.42
2023-02-06T19:32:03.723Z,73.16
2023-02-06T19:34:35.858Z,73.12
2023-02-06T19:37:03.577Z,73.37
2023-02-06T19:39:33.975Z,73.50
2023-02-06T19:42:01.935Z,73.02
2023-02-06T19:44:29.536Z,73.52
2023-02-06T19:46:57.573Z,73.29
2023-02-06T19:49:26.042Z,73.08
2023-02-06T19:51:55.117Z,72.71
2023-02-06T19:54:22.663Z,72.93
2023-02-06T19:56:50.354Z,72.55
2023-02-06T19:59:19.878Z,72.60
2023-02-06T20:01:48.560Z,72.77
2023-02-06T20:04:20.508Z,72.67
2023-02-06T20:06:50.956Z,72.98
2023-02-06T20:09:21.455Z,73.08
2023-02-06T20:11:49.826Z,72.86
2023-02-06T20:14:18.164Z,72.94
2023-02-06T20:16:47.192Z,73.44
2023-02-06T20:19:18.418Z,73.02
2023-02-06T20:21:48.345Z,72.61
2023-02-06T20:24:20.728Z,73.07
2023-02-06T20:26:52.946Z,73.23
2023-02-06T20:29:23.007Z,73.43
2023-02-06T20:31:51.712Z,73.13
2023-02-06T20:34:19.946Z,72.94
2023-02-06T20:36:47.694Z,72.66
2023-02-06T20:39:15.740Z,72.88
2023-02-06T20:41:44.007Z,72.61
2023-02-06T20:44:14.648Z,73.15
2023-02-06T20:46:43.135Z,72.94
2023-02-06T20:49:15.551Z,72.81
2023-02-06T20:51:43.079Z,72.79
2023-02-06T20:54:11.461Z,72.59
2023-02-06T20:56:39.739Z,71.65
2023-02-06T20:59:07.443Z,71.97
2023-02-06T21:01:36.397Z,72.04
2023-02-06T21:04:07.467Z,72.50
2023-02-06T21:06:36.410Z,72.26
2023-02-06T21:09:05.251Z,71.92
2023-02-06T21:11:35.201Z,71.58
2023-02-06T21:14:04.830Z,70.85
2023-02-06T21:16:33.648Z,70.86
2023-02-06T21:19:05.322Z,70.32
2023-02-06T21:21:33.175Z,70.15
2023-02-06T21:24:00.725Z,69.81
2023-02-06T21:26:29.268Z,69.60
2023-02-06T21:28:58.266Z,68.96
2023-02-06T21:31:32.986Z,68.70
2023-02-06T21:34:07.035Z,68.97
2023-02-06T21:36:35.580Z,68.35
2023-02-06T21:39:04.012Z,69.12
2023-02-06T21:41:31.777Z,68.17
2023-02-06T21:43:59.559Z,67.64
2023-02-06T21:46:30.253Z,68.60
2023-02-06T21:48:57.857Z,67.32
2023-02-06T21:51:26.790Z,66.79
2023-02-06T21:53:54.339Z,66.65
2023-02-06T21:56:25.792Z,65.34
2023-02-06T21:58:53.669Z,65.71
2023-02-06T22:01:24.077Z,65.37
2023-02-06T22:03:52.258Z,67.42
2023-02-06T22:06:20.834Z,66.56
2023-02-06T22:08:52.402Z,66.50
2023-02-06T22:11:22.626Z,66.97
2023-02-06T22:13:50.933Z,67.52
2023-02-06T22:16:21.160Z,67.06
2023-02-06T22:18:49.035Z,67.24
2023-02-06T22:21:18.713Z,67.11
2023-02-06T22:23:47.355Z,67.43
2023-02-06T22:26:18.455Z,67.63
2023-02-06T22:28:46.057Z,67.83
2023-02-06T22:31:15.679Z,68.08
2023-02-06T22:33:43.858Z,68.14
2023-02-06T22:36:14.364Z,69.03
2023-02-06T22:38:43.190Z,68.35
2023-02-06T22:41:13.046Z,68.69
2023-02-06T22:43:42.628Z,68.58
2023-02-06T22:46:18.286Z,68.80
2023-02-06T22:48:45.827Z,68.90
2023-02-06T22:51:13.858Z,68.82
2023-02-06T22:53:41.909Z,68.47
2023-02-06T22:56:29.583Z,68.84
2023-02-06T22:59:00.152Z,68.47
2023-02-06T23:01:30.622Z,68.75
2023-02-06T23:03:58.784Z,68.77
2023-02-06T23:06:27.728Z,68.81
2023-02-06T23:08:56.358Z,68.79
2023-02-06T23:11:24.187Z,69.12
2023-02-06T23:13:54.276Z,69.19
2023-02-06T23:16:23.796Z,68.95
2023-02-06T23:18:51.579Z,68.82
2023-02-06T23:21:21.008Z,69.25
2023-02-06T23:23:49.189Z,69.23
2023-02-06T23:26:19.730Z,68.40
2023-02-06T23:28:47.889Z,69.03
2023-02-06T23:31:15.568Z,68.51
2023-02-06T23:33:44.571Z,67.78
2023-02-06T23:36:14.655Z,68.18
2023-02-06T23:38:43.180Z,68.43
2023-02-06T23:41:13.486Z,68.49
2023-02-06T23:43:41.373Z,68.55
2023-02-06T23:46:12.114Z,68.75
2023-02-06T23:48:40.498Z,69.10
2023-02-06T23:51:09.691Z,70.96
2023-02-06T23:53:37.206Z,71.17
2023-02-06T23:56:11.337Z,73.25
2023-02-06T23:58:38.928Z,70.95
